• Join FlightAware (Why Join?)
  • Login
  • US Flag 
03:46AM EDT


 

Airport Tracker/Info


-or-


 

Live Flight TrackerFlight Track Log ✈ N650W ✈ 06-May-2012 ✈ KSDF - KHOU

Flight Track Log - Related Links

Times and Time Zones

All times are in EDT time to prevent confusion due to time zone crossing. See the N650W flight status page for this flight to view local times or setup timezone preferences in your user account.

Time Position Orientation Groundspeed Altitude Reporting Facility
EDT Latitude Longitude Course Direction KTS MPH feet Rate Location/Type
10:48AM 38.1417 -85.7233 206° Southwest 195 224 1,600  Level FAA TRACON SMA TRACON (SMA)
10:48AM 38.1008 -85.7486 210° Southwest 245 282 2,900 2,580 Climbing FAA TRACON SMA TRACON (SMA)
10:49AM 38.0578 -85.7797 235° Southwest 259 298 5,100 2,760 Climbing FAA TRACON SMA TRACON (SMA)
10:50AM 38.0319 -85.8269 245° Southwest 267 307 6,600 2,400 Climbing FAA TRACON SMA TRACON (SMA)
10:50AM 38.0094 -85.8892 249° West 285 328 8,300 2,700 Climbing FAA TRACON SMA TRACON (SMA)
10:51AM 37.9894 -85.9558 248° West 291 335 10,300 2,580 Climbing FAA TRACON SMA TRACON (SMA)
10:52AM 37.9714 -86.0136 225° Southwest 289 333 11,800 1,320 Climbing FAA TRACON SMA TRACON (SMA)
10:52AM 37.9283 -86.0681 204° Southwest 331 381 12,100 1,320 Climbing FAA TRACON SMA TRACON (SMA)
10:53AM 37.8678 -86.1017 197° South 347 399 13,600 2,400 Climbing FAA TRACON SMA TRACON (SMA)
10:54AM 37.8125 -86.1228 194° South 338 389 15,300 2,400 Climbing FAA TRACON SMA TRACON (SMA)
10:54AM 37.7500 -86.1431 218° Southwest 333 383 16,800 2,160 Climbing FAA TRACON SMA TRACON (SMA)
10:55AM 37.6989 -86.1933 238° Southwest 345 397 18,200 1,860 Climbing FAA TRACON SMA TRACON (SMA)
10:56AM 37.6675 -86.2572 242° Southwest 349 402 19,300 1,800 Climbing FAA TRACON SMA TRACON (SMA)
10:56AM 37.6361 -86.3331 241° Southwest 352 405 20,600 1,800 Climbing FAA TRACON SMA TRACON (SMA)
10:57AM 37.6028 -86.4081 239° Southwest 354 407 21,900 1,680 Climbing FAA TRACON SMA TRACON (SMA)
10:58AM 37.5714 -86.4739 240° Southwest 356 410 22,900 1,560 Climbing FAA TRACON SMA TRACON (SMA)
10:58AM 37.5367 -86.5508 239° Southwest 364 419 23,900 1,500 Climbing FAA TRACON SMA TRACON (SMA)
10:59AM 37.4994 -86.6278 240° Southwest 370 426 24,900 1,380 Climbing FAA TRACON SMA TRACON (SMA)
11:00AM 37.4517 -86.7308 240° Southwest 377 434 26,200 1,320 Climbing Memphis Center
11:01AM 37.3969 -86.8483 239° Southwest 377 434 27,600 1,380 Climbing Memphis Center
11:02AM 37.3397 -86.9683 239° Southwest 392 451 29,000 1,320 Climbing Memphis Center
11:03AM 37.2844 -87.0853 238° Southwest 397 457 30,300 1,200 Climbing Memphis Center
11:04AM 37.2253 -87.2050 240° Southwest 403 464 31,500 960 Climbing Memphis Center
11:05AM 37.1758 -87.3111 240° Southwest 403 464 32,300 720 Climbing Memphis Center
11:06AM 37.1183 -87.4381 238° Southwest 410 472 33,000 600 Climbing Memphis Center
11:07AM 37.0567 -87.5600 239° Southwest 415 478 33,600 480 Climbing Memphis Center
11:08AM 36.9947 -87.6894 240° Southwest 426 490 34,000 180 Climbing Memphis Center
11:09AM 36.9350 -87.8211 238° Southwest 435 501 34,000  Level Memphis Center
11:10AM 36.8689 -87.9556 237° Southwest 447 514 34,000  Level Memphis Center
11:11AM 36.8006 -88.0872 227° Southwest 453 521 34,000  Level Memphis Center
11:12AM 36.7069 -88.2139 227° Southwest 458 527 34,000  Level Memphis Center
11:13AM 36.6194 -88.3328 227° Southwest 463 533 34,000  Level Memphis Center
11:14AM 36.5294 -88.4511 227° Southwest 468 539 34,000  Level Memphis Center
11:15AM 36.4436 -88.5667 227° Southwest 468 539 34,000  Level Memphis Center
11:16AM 36.3558 -88.6844 226° Southwest 468 539 34,000  Level Memphis Center
11:17AM 36.2839 -88.7761 226° Southwest 468 539 34,000  Level Memphis Center
11:18AM 36.1875 -88.9014 227° Southwest 463 533 34,000  Level Memphis Center
11:19AM 36.1014 -89.0161 227° Southwest 463 533 34,000  Level Memphis Center
11:20AM 36.0150 -89.1303 227° Southwest 463 533 34,000  Level Memphis Center
11:21AM 35.9283 -89.2444 226° Southwest 458 527 34,000  Level Memphis Center
11:22AM 35.8417 -89.3558 223° Southwest 458 527 34,000  Level Memphis Center
11:23AM 35.7486 -89.4617 216° Southwest 458 527 34,000  Level Memphis Center
11:24AM 35.6431 -89.5575 216° Southwest 446 513 34,000  Level Memphis Center
11:25AM 35.5433 -89.6478 217° Southwest 446 513 34,000  Level Memphis Center
11:26AM 35.4417 -89.7403 217° Southwest 456 525 34,000  Level Memphis Center
11:27AM 35.3400 -89.8328 216° Southwest 456 525 34,000  Level Memphis Center
11:30AM 35.0447 -90.0958 216° Southwest 456 525 34,000  Level Memphis Center
11:31AM 34.9447 -90.1847 216° Southwest 456 525 34,000  Level Memphis Center
11:32AM 34.8425 -90.2736 215° Southwest 456 525 34,000  Level Memphis Center
11:33AM 34.7403 -90.3597 216° Southwest 456 525 34,000  Level Memphis Center
11:34AM 34.6400 -90.4481 216° Southwest 456 525 34,000 -360 Level Memphis Center
11:35AM 34.5400 -90.5361 215° Southwest 451 519 33,300 -960 Descending Memphis Center
11:36AM 34.4436 -90.6167 215° Southwest 440 506 32,100 -1,260 Descending Memphis Center
11:37AM 34.3497 -90.6967 214° Southwest 426 490 30,800 -1,080 Descending Memphis Center
11:38AM 34.2492 -90.7792 217° Southwest 433 498 30,000 -420 Descending Memphis Center
11:39AM 34.1444 -90.8742 215° Southwest 433 498 30,000  Level Memphis Center
11:40AM 34.0439 -90.9589 215° Southwest 433 498 30,000  Level Memphis Center
11:41AM 33.9456 -91.0433 215° Southwest 438 504 30,000  Level Memphis Center
11:42AM 33.8447 -91.1275 216° Southwest 444 511 30,000  Level Memphis Center
11:43AM 33.7567 -91.2042 215° Southwest 444 511 30,000  Level Memphis Center
11:44AM 33.6539 -91.2906 215° Southwest 444 511 30,000 -420 Level Memphis Center
11:45AM 33.5528 -91.3767 216° Southwest 444 511 29,200 -1,200 Descending Memphis Center
11:47AM 33.3078 -91.5878 214° Southwest 433 498 26,000 -960 Descending Fort Worth Center
11:48AM 33.2072 -91.6689 214° Southwest 433 498 26,000  Level Fort Worth Center
11:49AM 33.1067 -91.7497 216° Southwest 438 504 26,000  Level Fort Worth Center
11:50AM 33.0142 -91.8297 215° Southwest 433 498 26,000  Level Fort Worth Center
11:51AM 32.9156 -91.9128 215° Southwest 433 498 26,000  Level Fort Worth Center
11:52AM 32.8189 -91.9928 213° Southwest 433 498 26,000  Level Fort Worth Center
11:53AM 32.7158 -92.0731 216° Southwest 439 505 26,000  Level Fort Worth Center
11:55AM 32.5314 -92.2319 214° Southwest 465 535 26,000  Level Houston Center
11:56AM 32.4331 -92.3100 215° Southwest 453 521 26,000  Level Houston Center
11:57AM 32.3347 -92.3928 213° Southwest 448 516 26,000  Level Houston Center
11:58AM 32.2361 -92.4681 215° Southwest 437 503 26,000  Level Houston Center
11:59AM 32.1378 -92.5481 215° Southwest 437 503 26,000  Level Houston Center
12:00PM 32.0411 -92.6281 222° Southwest 437 503 26,000 -300 Level Houston Center
12:02PM 31.8689 -92.8094 229° Southwest 424 488 25,200 -720 Descending Houston Center
12:03PM 31.7928 -92.9111 227° Southwest 418 481 24,000 -600 Descending Houston Center
12:04PM 31.7147 -93.0103 228° Southwest 418 481 24,000  Level Houston Center
12:05PM 31.6386 -93.1092 226° Southwest 412 474 24,000  Level Houston Center
12:06PM 31.5603 -93.2053 227° Southwest 412 474 24,000  Level Houston Center
12:07PM 31.4883 -93.2967 227° Southwest 412 474 24,000  Level Houston Center
12:08PM 31.4119 -93.3928 227° Southwest 412 474 24,000  Level Houston Center
12:09PM 31.3336 -93.4911 227° Southwest 412 474 24,000  Level Houston Center
12:10PM 31.2508 -93.5964 227° Southwest 412 474 24,000  Level Houston Center
12:11PM 31.1719 -93.6967 227° Southwest 412 474 24,000 -60 Level Houston Center
12:12PM 31.0975 -93.7897 227° Southwest 412 474 23,900  Descending Houston Center
12:14PM 31.0208 -93.8850 226° Southwest 412 474 24,000 -420 Climbing Houston Center
12:15PM 30.9272 -93.9992 226° Southwest 412 474 23,000 -1,080 Descending Houston Center
12:16PM 30.8589 -94.0822 225° Southwest 412 474 21,900 -1,140 Descending Houston Center
12:17PM 30.7800 -94.1744 227° Southwest 412 474 20,800 -1,200 Descending Houston Center
12:18PM 30.7031 -94.2692 226° Southwest 407 468 19,600 -1,200 Descending Houston Center
12:19PM 30.6283 -94.3589 227° Southwest 402 463 18,500 -1,140 Descending Houston Center
12:20PM 30.5556 -94.4486 225° Southwest 396 456 17,400 -1,140 Descending Houston Center
12:21PM 30.4764 -94.5406 237° Southwest 384 442 16,300 -1,200 Descending Houston Center
12:22PM 30.4200 -94.6400 234° Southwest 384 442 15,000 -1,320 Descending Houston Center
12:23PM 30.3617 -94.7344 233° Southwest 374 430 13,700 -1,320 Descending Houston Center
12:24PM 30.3075 -94.8169 232° Southwest 351 404 12,400 -1,320 Descending Houston Center
12:25PM 30.2533 -94.8972 233° Southwest 340 391 11,100 -1,200 Descending Houston Center
12:26PM 30.1992 -94.9794 233° Southwest 335 386 10,000 -600 Descending Houston Center
12:27PM 30.1450 -95.0619 206° Southwest 330 380 10,000  Level Houston Center
12:28PM 30.0689 -95.1050 200° South 313 360 10,000  Level Houston Center
12:29PM 29.9886 -95.1381 200° South 313 360 10,000  Level Houston Center
12:30PM 29.9147 -95.1692 201° Southwest 313 360 10,000 -720 Level Houston Center
12:31PM 29.8450 -95.2003 200° South 300 345 8,600 -1,200 Descending Houston Center
12:32PM 29.7756 -95.2292 200° South 286 329 7,600 -1,080 Descending Houston Center
12:33PM 29.7036 -95.2600 218° Southwest 276 318 6,500 -900 Descending Houston Center
12:34PM 29.6481 -95.3108 277° West 270 311 5,800 -1,380 Descending Houston Center
12:35PM 29.6614 -95.4308 329° Northwest 263 303 3,200 -1,200 Descending Houston Center
12:36PM 29.7147 -95.4683 75° East 235 270 2,900 -600 Descending Houston Center
12:37PM 29.7311 -95.3997 127° Southeast 222 255 2,000 -600 Descending Houston Center
12:38PM 29.6992 -95.3508 131° Southeast 161 185 1,700 -600 Descending Houston Center
12:39PM 29.6750 -95.3189 131° Southeast 131 151 800 -900 Descending Houston Center